Kasagimaru — JJ3905 — position and weather

sailwx.info

Track history (hours):
 
Tides and Currents Weather Stations Pressure Air Temp Water Temp Dewpoint Dewpoint Depression Visibility Wind Speed Wind Dir Waves Ship Positions

Kasagimaru

Last reported at 2014-Aug-23 00:33 UTC. Time now 2014-Aug-23 19:21 UTC.
Position N 34°41' E 134°42'.

Length 42 m; draft 3.5 m.

Type: Tug. MMSI: 431300268.

Date/timePositionNaut miles runAvg speedWind from/ knotsBaromVisibWave heightAir tempDewpointWater temp
2014-Aug-23 00:33N 34°41' E 134°42'9 8.9
2014-Aug-22 23:32N 34°38' E 134°52'1111.7
2014-Aug-22 22:33N 34°35' E 135°06'1110.9
2014-Aug-22 21:33N 34°34' E 135°19'7 6.6
2014-Aug-22 20:33N 34°33' E 135°27'0 0.0
2014-Aug-22 19:33N 34°33' E 135°27'0 0.0
2014-Aug-22 18:33N 34°33' E 135°27'0 0.0
2014-Aug-22 17:33N 34°33' E 135°27'0 0.0
2014-Aug-22 16:33N 34°33' E 135°27'0 0.0
2014-Aug-22 15:30N 34°33' E 135°27'0 0.0
2014-Aug-22 14:27N 34°33' E 135°27'0 0.0
2014-Aug-22 13:33N 34°33' E 135°27'0 0.0
2014-Aug-22 12:33N 34°33' E 135°27'0 0.0
2014-Aug-22 11:33N 34°33' E 135°27'0 0.0
2014-Aug-22 09:26N 34°33' E 135°27'0 0.0
2014-Aug-22 07:31N 34°33' E 135°27'0 0.0
2014-Aug-22 06:33N 34°33' E 135°27'0 0.0
2014-Aug-22 04:15N 34°33' E 135°27'0 0.0
2014-Aug-22 02:26N 34°33' E 135°27'1 0.9
2014-Aug-22 01:34N 34°33' E 135°26'1 0.1
2014-Aug-21 06:03N 34°33' E 135°24'611.3
2014-Aug-21 05:32N 34°29' E 135°20'1211.6
2014-Aug-21 04:33N 34°22' E 135°08'9 8.4
2014-Aug-21 03:30N 34°18' E 134°59'1213.2
2014-Aug-21 02:33N 34°27' E 135°09'1212.3
2014-Aug-21 01:33N 34°33' E 135°22'2 1.7
2014-Aug-21 00:32N 34°34' E 135°24'2 2.1
2014-Aug-20 23:32N 34°33' E 135°27'0 0.0
2014-Aug-20 22:32N 34°33' E 135°27'0 0.0
2014-Aug-20 21:30N 34°33' E 135°27'0 0.0
2014-Aug-20 20:32N 34°33' E 135°27'0 0.0
2014-Aug-20 19:21N 34°33' E 135°27'0 0.0
2014-Aug-20 18:31N 34°33' E 135°27'0 0.0
2014-Aug-20 17:30N 34°33' E 135°27'0 0.0
2014-Aug-20 16:33N 34°33' E 135°27'0 0.0
2014-Aug-20 15:33N 34°33' E 135°27'0 0.0
2014-Aug-20 14:33N 34°33' E 135°27'0 0.0
2014-Aug-20 13:33N 34°33' E 135°27'0 0.0
2014-Aug-20 12:33N 34°33' E 135°27'0 0.0
2014-Aug-20 11:33N 34°33' E 135°27'0 0.0
2014-Aug-20 10:33N 34°33' E 135°27'0 0.0
2014-Aug-20 09:33N 34°33' E 135°27'0 0.0
2014-Aug-20 08:33N 34°33' E 135°27'0 0.0
2014-Aug-20 07:33N 34°33' E 135°27'0 0.0
2014-Aug-20 06:33N 34°33' E 135°27'0 0.0
2014-Aug-20 05:33N 34°33' E 135°27'0 0.0
2014-Aug-20 04:33N 34°33' E 135°27'0 0.5
2014-Aug-20 03:32N 34°33' E 135°26'2 1.4
2014-Aug-20 02:23N 34°34' E 135°24'0 0.4
2014-Aug-20 01:31N 34°34' E 135°24'6 6.4
2014-Aug-20 00:33N 34°32' E 135°17'2411.9
2014-Aug-19 22:32N 34°13' E 134°59'7 7.3
2014-Aug-19 21:34N 34°13' E 135°08'1 0.8
2014-Aug-19 20:34N 34°13' E 135°09'0 0.0
2014-Aug-19 19:33N 34°13' E 135°09'0 0.0
2014-Aug-19 18:33N 34°13' E 135°09'0 0.0
2014-Aug-19 17:33N 34°13' E 135°09'0 0.0
2014-Aug-19 16:33N 34°13' E 135°09'0 0.0
2014-Aug-19 15:33N 34°13' E 135°09'0 0.0
2014-Aug-19 14:33N 34°13' E 135°09'0 0.0
2014-Aug-19 13:33N 34°13' E 135°09'0 0.0
2014-Aug-19 12:34N 34°13' E 135°09'0 0.0
2014-Aug-19 11:33N 34°13' E 135°09'0 0.0
2014-Aug-19 10:33N 34°13' E 135°09'0 0.0
2014-Aug-19 09:33N 34°13' E 135°09'0 0.0
2014-Aug-19 08:34N 34°13' E 135°09'0 0.0
2014-Aug-19 07:33N 34°13' E 135°09'7 6.1
2014-Aug-19 06:27N 34°19' E 135°04'1011.0
2014-Aug-19 05:34N 34°24' E 135°14'1212.1
2014-Aug-19 04:33N 34°33' E 135°24'2 1.5
2014-Aug-19 03:31N 34°33' E 135°26'1 0.6
2014-Aug-19 02:33N 34°33' E 135°25'0 0.2
2014-Aug-19 01:32N 34°33' E 135°25'4 3.7
2014-Aug-19 00:33N 34°33' E 135°21'5 4.5
2014-Aug-18 23:32N 34°33' E 135°26'0 0.5
2014-Aug-18 22:33N 34°33' E 135°27'0 0.0
2014-Aug-18 21:33N 34°33' E 135°27'0 0.0
2014-Aug-18 20:32N 34°33' E 135°27'0 0.0
2014-Aug-18 19:33N 34°33' E 135°27'0 0.0
2014-Aug-18 18:33N 34°33' E 135°27'0 0.0
2014-Aug-18 17:33N 34°33' E 135°27'0 0.0
2014-Aug-18 16:33N 34°33' E 135°27'0 0.0
2014-Aug-18 15:33N 34°33' E 135°27'0 0.0
2014-Aug-18 14:34N 34°33' E 135°27'0 0.0
2014-Aug-18 13:34N 34°33' E 135°27'0 0.0
2014-Aug-18 12:33N 34°33' E 135°27'0 0.0
2014-Aug-18 11:33N 34°33' E 135°27'0 0.0
2014-Aug-18 10:33N 34°33' E 135°27'0 0.0
2014-Aug-18 09:33N 34°33' E 135°27'0 0.0
2014-Aug-18 08:32N 34°33' E 135°27'0 0.0
2014-Aug-18 07:33N 34°33' E 135°27'1010.1
2014-Aug-18 06:33N 34°35' E 135°15'1111.1
2014-Aug-18 05:33N 34°37' E 135°01'17 3.4
2014-Aug-18 00:30N 34°40' E 134°41'  
2014-Aug-15 02:19N 34°11' E 134°49'9 9.6
2014-Aug-15 01:24N 34°16' E 134°58'910.3
2014-Aug-15 00:32N 34°24' E 135°04'1111.6
2014-Aug-14 23:33N 34°29' E 135°16'7 6.8
2014-Aug-14 22:33N 34°32' E 135°24'0 0.0
2014-Aug-14 21:30N 34°32' E 135°24'2 2.6
2014-Aug-14 20:33N 34°33' E 135°27'0 0.0
2014-Aug-14 19:33N 34°33' E 135°27'0 0.0
2014-Aug-14 18:33N 34°33' E 135°27'0 0.0
2014-Aug-14 17:33N 34°33' E 135°27'0 0.0
2014-Aug-14 16:34N 34°33' E 135°27'0 0.0
2014-Aug-14 15:34N 34°33' E 135°27'0 0.0
2014-Aug-14 14:34N 34°33' E 135°27'0 0.0
2014-Aug-14 13:34N 34°33' E 135°27'0 0.0
2014-Aug-14 12:33N 34°33' E 135°27'0 0.0
2014-Aug-14 11:33N 34°33' E 135°27'0 0.0
2014-Aug-14 10:33N 34°33' E 135°27'0 0.0
2014-Aug-14 09:33N 34°33' E 135°27'0 0.0
2014-Aug-14 08:33N 34°33' E 135°27'0 0.0
2014-Aug-14 07:34N 34°33' E 135°27'6 5.9
2014-Aug-14 06:33N 34°39' E 135°24'1 1.1
2014-Aug-14 05:34N 34°38' E 135°24'2 2.0
2014-Aug-14 04:33N 34°39' E 135°26'0 0.0
2014-Aug-14 03:33N 34°39' E 135°26'0 0.0
2014-Aug-14 02:33N 34°39' E 135°26'1 0.8
2014-Aug-14 01:33N 34°39' E 135°25'6 2.9
2014-Aug-13 23:31N 34°33' E 135°27'0 0.0
2014-Aug-13 22:33N 34°33' E 135°27'0 0.0
2014-Aug-13 21:29N 34°33' E 135°27'0 0.0
2014-Aug-13 20:32N 34°33' E 135°27'0 0.0
2014-Aug-13 19:32N 34°33' E 135°27'0 0.0
2014-Aug-13 18:33N 34°33' E 135°27'0 0.0
2014-Aug-13 17:33N 34°33' E 135°27'0 0.0
2014-Aug-13 16:32N 34°33' E 135°27'0 0.0
2014-Aug-13 15:33N 34°33' E 135°27'0 0.0
2014-Aug-13 14:33N 34°33' E 135°27'0 0.0
2014-Aug-13 13:23N 34°33' E 135°27'0 0.0
2014-Aug-13 12:27N 34°33' E 135°27'0 0.0
2014-Aug-13 11:33N 34°33' E 135°27'0 0.0
2014-Aug-13 10:30N 34°33' E 135°27'0 0.0
2014-Aug-13 09:33N 34°33' E 135°27'0 0.0
2014-Aug-13 08:30N 34°33' E 135°27'0 0.0
2014-Aug-13 07:27N 34°33' E 135°27'5 5.8
2014-Aug-13 06:32N 34°30' E 135°21'1211.6
2014-Aug-13 05:31N 34°23' E 135°10'1110.6
2014-Aug-13 04:27N 34°16' E 134°59'1011.4
2014-Aug-13 03:33N 34°26' E 135°02'9 9.2
2014-Aug-13 02:33N 34°35' E 135°05'  
Track history (hours):
 
Tides and Currents Weather Stations Pressure Air Temp Water Temp Dewpoint Dewpoint Depression Visibility Wind Speed Wind Dir Waves Ship Positions

Kasagimaru

Last reported at 2014-Aug-23 00:33 UTC. Time now 2014-Aug-23 19:21 UTC.
Position N 34°41' E 134°42'.

Length 42 m; draft 3.5 m.

Type: Tug. MMSI: 431300268.

Date/timePositionNaut miles runAvg speedWind from/ knotsBaromVisibWave heightAir tempDewpointWater temp
2014-Aug-23 00:33N 34°41' E 134°42'9 8.9
2014-Aug-22 23:32N 34°38' E 134°52'1111.7
2014-Aug-22 22:33N 34°35' E 135°06'1110.9
2014-Aug-22 21:33N 34°34' E 135°19'7 6.6
2014-Aug-22 20:33N 34°33' E 135°27'0 0.0
2014-Aug-22 19:33N 34°33' E 135°27'0 0.0
2014-Aug-22 18:33N 34°33' E 135°27'0 0.0
2014-Aug-22 17:33N 34°33' E 135°27'0 0.0
2014-Aug-22 16:33N 34°33' E 135°27'0 0.0
2014-Aug-22 15:30N 34°33' E 135°27'0 0.0
2014-Aug-22 14:27N 34°33' E 135°27'0 0.0
2014-Aug-22 13:33N 34°33' E 135°27'0 0.0
2014-Aug-22 12:33N 34°33' E 135°27'0 0.0
2014-Aug-22 11:33N 34°33' E 135°27'0 0.0
2014-Aug-22 09:26N 34°33' E 135°27'0 0.0
2014-Aug-22 07:31N 34°33' E 135°27'0 0.0
2014-Aug-22 06:33N 34°33' E 135°27'0 0.0
2014-Aug-22 04:15N 34°33' E 135°27'0 0.0
2014-Aug-22 02:26N 34°33' E 135°27'1 0.9
2014-Aug-22 01:34N 34°33' E 135°26'1 0.1
2014-Aug-21 06:03N 34°33' E 135°24'611.3
2014-Aug-21 05:32N 34°29' E 135°20'1211.6
2014-Aug-21 04:33N 34°22' E 135°08'9 8.4
2014-Aug-21 03:30N 34°18' E 134°59'1213.2
2014-Aug-21 02:33N 34°27' E 135°09'1212.3
2014-Aug-21 01:33N 34°33' E 135°22'2 1.7
2014-Aug-21 00:32N 34°34' E 135°24'2 2.1
2014-Aug-20 23:32N 34°33' E 135°27'0 0.0
2014-Aug-20 22:32N 34°33' E 135°27'0 0.0
2014-Aug-20 21:30N 34°33' E 135°27'0 0.0
2014-Aug-20 20:32N 34°33' E 135°27'0 0.0
2014-Aug-20 19:21N 34°33' E 135°27'0 0.0
2014-Aug-20 18:31N 34°33' E 135°27'0 0.0
2014-Aug-20 17:30N 34°33' E 135°27'0 0.0
2014-Aug-20 16:33N 34°33' E 135°27'0 0.0
2014-Aug-20 15:33N 34°33' E 135°27'0 0.0
2014-Aug-20 14:33N 34°33' E 135°27'0 0.0
2014-Aug-20 13:33N 34°33' E 135°27'0 0.0
2014-Aug-20 12:33N 34°33' E 135°27'0 0.0
2014-Aug-20 11:33N 34°33' E 135°27'0 0.0
2014-Aug-20 10:33N 34°33' E 135°27'0 0.0
2014-Aug-20 09:33N 34°33' E 135°27'0 0.0
2014-Aug-20 08:33N 34°33' E 135°27'0 0.0
2014-Aug-20 07:33N 34°33' E 135°27'0 0.0
2014-Aug-20 06:33N 34°33' E 135°27'0 0.0
2014-Aug-20 05:33N 34°33' E 135°27'0 0.0
2014-Aug-20 04:33N 34°33' E 135°27'0 0.5
2014-Aug-20 03:32N 34°33' E 135°26'2 1.4
2014-Aug-20 02:23N 34°34' E 135°24'0 0.4
2014-Aug-20 01:31N 34°34' E 135°24'6 6.4
2014-Aug-20 00:33N 34°32' E 135°17'2411.9
2014-Aug-19 22:32N 34°13' E 134°59'7 7.3
2014-Aug-19 21:34N 34°13' E 135°08'1 0.8
2014-Aug-19 20:34N 34°13' E 135°09'0 0.0
2014-Aug-19 19:33N 34°13' E 135°09'0 0.0
2014-Aug-19 18:33N 34°13' E 135°09'0 0.0
2014-Aug-19 17:33N 34°13' E 135°09'0 0.0
2014-Aug-19 16:33N 34°13' E 135°09'0 0.0
2014-Aug-19 15:33N 34°13' E 135°09'0 0.0
2014-Aug-19 14:33N 34°13' E 135°09'0 0.0
2014-Aug-19 13:33N 34°13' E 135°09'0 0.0
2014-Aug-19 12:34N 34°13' E 135°09'0 0.0
2014-Aug-19 11:33N 34°13' E 135°09'0 0.0
2014-Aug-19 10:33N 34°13' E 135°09'0 0.0
2014-Aug-19 09:33N 34°13' E 135°09'0 0.0
2014-Aug-19 08:34N 34°13' E 135°09'0 0.0
2014-Aug-19 07:33N 34°13' E 135°09'7 6.1
2014-Aug-19 06:27N 34°19' E 135°04'1011.0
2014-Aug-19 05:34N 34°24' E 135°14'1212.1
2014-Aug-19 04:33N 34°33' E 135°24'2 1.5
2014-Aug-19 03:31N 34°33' E 135°26'1 0.6
2014-Aug-19 02:33N 34°33' E 135°25'0 0.2
2014-Aug-19 01:32N 34°33' E 135°25'4 3.7
2014-Aug-19 00:33N 34°33' E 135°21'5 4.5
2014-Aug-18 23:32N 34°33' E 135°26'0 0.5
2014-Aug-18 22:33N 34°33' E 135°27'0 0.0
2014-Aug-18 21:33N 34°33' E 135°27'0 0.0
2014-Aug-18 20:32N 34°33' E 135°27'0 0.0
2014-Aug-18 19:33N 34°33' E 135°27'0 0.0
2014-Aug-18 18:33N 34°33' E 135°27'0 0.0
2014-Aug-18 17:33N 34°33' E 135°27'0 0.0
2014-Aug-18 16:33N 34°33' E 135°27'0 0.0
2014-Aug-18 15:33N 34°33' E 135°27'0 0.0
2014-Aug-18 14:34N 34°33' E 135°27'0 0.0
2014-Aug-18 13:34N 34°33' E 135°27'0 0.0
2014-Aug-18 12:33N 34°33' E 135°27'0 0.0
2014-Aug-18 11:33N 34°33' E 135°27'0 0.0
2014-Aug-18 10:33N 34°33' E 135°27'0 0.0
2014-Aug-18 09:33N 34°33' E 135°27'0 0.0
2014-Aug-18 08:32N 34°33' E 135°27'0 0.0
2014-Aug-18 07:33N 34°33' E 135°27'1010.1
2014-Aug-18 06:33N 34°35' E 135°15'1111.1
2014-Aug-18 05:33N 34°37' E 135°01'17 3.4
2014-Aug-18 00:30N 34°40' E 134°41'  
2014-Aug-15 02:19N 34°11' E 134°49'9 9.6
2014-Aug-15 01:24N 34°16' E 134°58'910.3
2014-Aug-15 00:32N 34°24' E 135°04'1111.6
2014-Aug-14 23:33N 34°29' E 135°16'7 6.8
2014-Aug-14 22:33N 34°32' E 135°24'0 0.0
2014-Aug-14 21:30N 34°32' E 135°24'2 2.6
2014-Aug-14 20:33N 34°33' E 135°27'0 0.0
2014-Aug-14 19:33N 34°33' E 135°27'0 0.0
2014-Aug-14 18:33N 34°33' E 135°27'0 0.0
2014-Aug-14 17:33N 34°33' E 135°27'0 0.0
2014-Aug-14 16:34N 34°33' E 135°27'0 0.0
2014-Aug-14 15:34N 34°33' E 135°27'0 0.0
2014-Aug-14 14:34N 34°33' E 135°27'0 0.0
2014-Aug-14 13:34N 34°33' E 135°27'0 0.0
2014-Aug-14 12:33N 34°33' E 135°27'0 0.0
2014-Aug-14 11:33N 34°33' E 135°27'0 0.0
2014-Aug-14 10:33N 34°33' E 135°27'0 0.0
2014-Aug-14 09:33N 34°33' E 135°27'0 0.0
2014-Aug-14 08:33N 34°33' E 135°27'0 0.0
2014-Aug-14 07:34N 34°33' E 135°27'6 5.9
2014-Aug-14 06:33N 34°39' E 135°24'1 1.1
2014-Aug-14 05:34N 34°38' E 135°24'2 2.0
2014-Aug-14 04:33N 34°39' E 135°26'0 0.0
2014-Aug-14 03:33N 34°39' E 135°26'0 0.0
2014-Aug-14 02:33N 34°39' E 135°26'1 0.8
2014-Aug-14 01:33N 34°39' E 135°25'6 2.9
2014-Aug-13 23:31N 34°33' E 135°27'0 0.0
2014-Aug-13 22:33N 34°33' E 135°27'0 0.0
2014-Aug-13 21:29N 34°33' E 135°27'0 0.0
2014-Aug-13 20:32N 34°33' E 135°27'0 0.0
2014-Aug-13 19:32N 34°33' E 135°27'0 0.0
2014-Aug-13 18:33N 34°33' E 135°27'0 0.0
2014-Aug-13 17:33N 34°33' E 135°27'0 0.0
2014-Aug-13 16:32N 34°33' E 135°27'0 0.0
2014-Aug-13 15:33N 34°33' E 135°27'0 0.0
2014-Aug-13 14:33N 34°33' E 135°27'0 0.0
2014-Aug-13 13:23N 34°33' E 135°27'0 0.0
2014-Aug-13 12:27N 34°33' E 135°27'0 0.0
2014-Aug-13 11:33N 34°33' E 135°27'0 0.0
2014-Aug-13 10:30N 34°33' E 135°27'0 0.0
2014-Aug-13 09:33N 34°33' E 135°27'0 0.0
2014-Aug-13 08:30N 34°33' E 135°27'0 0.0
2014-Aug-13 07:27N 34°33' E 135°27'5 5.8
2014-Aug-13 06:32N 34°30' E 135°21'1211.6
2014-Aug-13 05:31N 34°23' E 135°10'1110.6
2014-Aug-13 04:27N 34°16' E 134°59'1011.4
2014-Aug-13 03:33N 34°26' E 135°02'9 9.2
2014-Aug-13 02:33N 34°35' E 135°05'  

Dump ship's entire track history